sensor_id;sensor_type;location;lat;lon;timestamp;P1;durP1;ratioP1;P2;durP2;ratioP2
82642;SDS011;72323;41.914;22.438;2023-09-07T00:01:44;9.48;;;7.20;;
82642;SDS011;72323;41.914;22.438;2023-09-07T00:04:11;10.52;;;8.23;;
82642;SDS011;72323;41.914;22.438;2023-09-07T00:06:38;13.15;;;7.20;;
82642;SDS011;72323;41.914;22.438;2023-09-07T00:09:04;11.63;;;7.55;;
82642;SDS011;72323;41.914;22.438;2023-09-07T00:11:33;10.15;;;7.47;;
82642;SDS011;72323;41.914;22.438;2023-09-07T00:13:59;11.50;;;6.60;;
82642;SDS011;72323;41.914;22.438;2023-09-07T00:16:32;8.60;;;7.65;;
82642;SDS011;72323;41.914;22.438;2023-09-07T00:19:00;8.23;;;7.10;;
82642;SDS011;72323;41.914;22.438;2023-09-07T00:21:28;9.95;;;7.75;;
82642;SDS011;72323;41.914;22.438;2023-09-07T00:23:54;10.10;;;7.15;;
82642;SDS011;72323;41.914;22.438;2023-09-07T00:26:20;9.35;;;7.80;;
82642;SDS011;72323;41.914;22.438;2023-09-07T00:28:47;9.85;;;7.20;;
82642;SDS011;72323;41.914;22.438;2023-09-07T00:31:16;9.93;;;7.60;;
82642;SDS011;72323;41.914;22.438;2023-09-07T00:33:42;8.38;;;7.00;;
82642;SDS011;72323;41.914;22.438;2023-09-07T00:36:08;10.35;;;7.03;;
82642;SDS011;72323;41.914;22.438;2023-09-07T00:38:34;9.85;;;7.28;;
82642;SDS011;72323;41.914;22.438;2023-09-07T00:41:00;8.98;;;6.82;;
82642;SDS011;72323;41.914;22.438;2023-09-07T00:43:26;10.25;;;7.55;;
82642;SDS011;72323;41.914;22.438;2023-09-07T00:45:52;9.75;;;6.60;;
82642;SDS011;72323;41.914;22.438;2023-09-07T00:48:19;11.10;;;7.95;;
82642;SDS011;72323;41.914;22.438;2023-09-07T00:50:45;12.13;;;7.18;;
82642;SDS011;72323;41.914;22.438;2023-09-07T00:53:12;9.70;;;7.25;;
82642;SDS011;72323;41.914;22.438;2023-09-07T00:55:38;10.10;;;7.18;;
82642;SDS011;72323;41.914;22.438;2023-09-07T00:58:04;10.32;;;7.18;;
82642;SDS011;72323;41.914;22.438;2023-09-07T01:00:30;9.45;;;7.13;;
82642;SDS011;72323;41.914;22.438;2023-09-07T01:02:56;14.23;;;7.10;;
82642;SDS011;72323;41.914;22.438;2023-09-07T01:05:24;8.75;;;6.85;;
82642;SDS011;72323;41.914;22.438;2023-09-07T01:07:55;9.00;;;6.97;;
82642;SDS011;72323;41.914;22.438;2023-09-07T01:10:23;10.98;;;7.22;;
82642;SDS011;72323;41.914;22.438;2023-09-07T01:12:49;9.77;;;7.57;;
82642;SDS011;72323;41.914;22.438;2023-09-07T01:15:15;10.73;;;7.47;;
82642;SDS011;72323;41.914;22.438;2023-09-07T01:17:42;10.10;;;7.38;;
82642;SDS011;72323;41.914;22.438;2023-09-07T01:20:09;11.93;;;7.32;;
82642;SDS011;72323;41.914;22.438;2023-09-07T01:22:35;9.48;;;7.03;;
82642;SDS011;72323;41.914;22.438;2023-09-07T01:25:02;8.80;;;7.10;;
82642;SDS011;72323;41.914;22.438;2023-09-07T01:27:29;9.45;;;7.05;;
82642;SDS011;72323;41.914;22.438;2023-09-07T01:29:56;9.52;;;7.38;;
82642;SDS011;72323;41.914;22.438;2023-09-07T01:32:23;10.60;;;8.00;;
82642;SDS011;72323;41.914;22.438;2023-09-07T01:34:50;10.98;;;7.53;;
82642;SDS011;72323;41.914;22.438;2023-09-07T01:37:18;12.18;;;7.45;;
82642;SDS011;72323;41.914;22.438;2023-09-07T01:39:44;9.48;;;7.45;;
82642;SDS011;72323;41.914;22.438;2023-09-07T01:42:10;10.02;;;7.60;;
82642;SDS011;72323;41.914;22.438;2023-09-07T01:44:36;11.27;;;7.82;;
82642;SDS011;72323;41.914;22.438;2023-09-07T01:47:03;11.45;;;7.80;;
82642;SDS011;72323;41.914;22.438;2023-09-07T01:49:29;11.13;;;7.70;;
82642;SDS011;72323;41.914;22.438;2023-09-07T01:51:55;10.82;;;7.28;;
82642;SDS011;72323;41.914;22.438;2023-09-07T01:54:21;10.23;;;7.75;;
82642;SDS011;72323;41.914;22.438;2023-09-07T01:56:47;8.90;;;7.40;;
82642;SDS011;72323;41.914;22.438;2023-09-07T01:59:14;9.15;;;7.05;;
82642;SDS011;72323;41.914;22.438;2023-09-07T02:01:40;13.40;;;8.60;;
82642;SDS011;72323;41.914;22.438;2023-09-07T02:04:06;10.75;;;7.93;;
82642;SDS011;72323;41.914;22.438;2023-09-07T02:06:32;11.00;;;9.48;;
82642;SDS011;72323;41.914;22.438;2023-09-07T02:09:06;11.90;;;8.30;;
82642;SDS011;72323;41.914;22.438;2023-09-07T02:11:33;11.05;;;8.88;;
82642;SDS011;72323;41.914;22.438;2023-09-07T02:13:59;13.18;;;10.07;;
82642;SDS011;72323;41.914;22.438;2023-09-07T02:16:25;13.23;;;9.35;;
82642;SDS011;72323;41.914;22.438;2023-09-07T02:18:59;11.95;;;9.15;;
82642;SDS011;72323;41.914;22.438;2023-09-07T02:21:25;10.73;;;8.90;;
82642;SDS011;72323;41.914;22.438;2023-09-07T02:23:51;12.45;;;9.10;;
82642;SDS011;72323;41.914;22.438;2023-09-07T02:26:17;11.48;;;8.73;;
82642;SDS011;72323;41.914;22.438;2023-09-07T02:28:43;10.90;;;9.13;;
82642;SDS011;72323;41.914;22.438;2023-09-07T02:31:10;14.15;;;10.02;;
82642;SDS011;72323;41.914;22.438;2023-09-07T02:33:36;11.60;;;9.35;;
82642;SDS011;72323;41.914;22.438;2023-09-07T02:36:02;12.25;;;9.98;;
82642;SDS011;72323;41.914;22.438;2023-09-07T02:38:31;12.32;;;10.27;;
82642;SDS011;72323;41.914;22.438;2023-09-07T02:40:57;13.68;;;9.90;;
82642;SDS011;72323;41.914;22.438;2023-09-07T02:43:23;12.40;;;9.40;;
82642;SDS011;72323;41.914;22.438;2023-09-07T02:45:49;13.13;;;9.60;;
82642;SDS011;72323;41.914;22.438;2023-09-07T02:48:16;12.45;;;10.88;;
82642;SDS011;72323;41.914;22.438;2023-09-07T02:50:42;14.98;;;10.52;;
82642;SDS011;72323;41.914;22.438;2023-09-07T02:53:10;13.88;;;9.80;;
82642;SDS011;72323;41.914;22.438;2023-09-07T02:55:38;13.00;;;9.98;;
82642;SDS011;72323;41.914;22.438;2023-09-07T02:58:05;13.02;;;9.93;;
82642;SDS011;72323;41.914;22.438;2023-09-07T03:00:31;10.35;;;9.18;;
82642;SDS011;72323;41.914;22.438;2023-09-07T03:02:57;10.35;;;9.00;;
82642;SDS011;72323;41.914;22.438;2023-09-07T03:05:26;11.05;;;8.50;;
82642;SDS011;72323;41.914;22.438;2023-09-07T03:07:53;11.45;;;9.15;;
82642;SDS011;72323;41.914;22.438;2023-09-07T03:10:19;11.25;;;9.23;;
82642;SDS011;72323;41.914;22.438;2023-09-07T03:12:45;10.80;;;8.77;;
82642;SDS011;72323;41.914;22.438;2023-09-07T03:15:12;12.73;;;10.05;;
82642;SDS011;72323;41.914;22.438;2023-09-07T03:17:38;14.70;;;9.45;;
82642;SDS011;72323;41.914;22.438;2023-09-07T03:20:06;12.02;;;10.23;;
82642;SDS011;72323;41.914;22.438;2023-09-07T03:22:42;12.25;;;9.82;;
82642;SDS011;72323;41.914;22.438;2023-09-07T03:25:08;13.90;;;9.50;;
82642;SDS011;72323;41.914;22.438;2023-09-07T03:27:35;11.02;;;9.80;;
82642;SDS011;72323;41.914;22.438;2023-09-07T03:30:01;11.02;;;9.48;;
82642;SDS011;72323;41.914;22.438;2023-09-07T03:32:29;11.35;;;10.00;;
82642;SDS011;72323;41.914;22.438;2023-09-07T03:35:00;10.75;;;9.65;;
82642;SDS011;72323;41.914;22.438;2023-09-07T03:37:27;10.68;;;9.35;;
82642;SDS011;72323;41.914;22.438;2023-09-07T03:39:53;10.32;;;9.23;;
82642;SDS011;72323;41.914;22.438;2023-09-07T03:42:19;13.52;;;10.05;;
82642;SDS011;72323;41.914;22.438;2023-09-07T03:44:45;13.77;;;10.00;;
82642;SDS011;72323;41.914;22.438;2023-09-07T03:47:13;11.90;;;9.85;;
82642;SDS011;72323;41.914;22.438;2023-09-07T03:49:40;11.45;;;9.57;;
82642;SDS011;72323;41.914;22.438;2023-09-07T03:52:06;15.60;;;10.85;;
82642;SDS011;72323;41.914;22.438;2023-09-07T03:54:32;13.50;;;10.25;;
82642;SDS011;72323;41.914;22.438;2023-09-07T03:56:59;13.23;;;10.75;;
82642;SDS011;72323;41.914;22.438;2023-09-07T03:59:27;12.43;;;10.85;;
82642;SDS011;72323;41.914;22.438;2023-09-07T04:01:53;12.65;;;10.55;;
82642;SDS011;72323;41.914;22.438;2023-09-07T04:04:20;12.57;;;10.25;;
82642;SDS011;72323;41.914;22.438;2023-09-07T04:06:46;13.88;;;10.65;;
82642;SDS011;72323;41.914;22.438;2023-09-07T04:09:15;14.68;;;10.90;;
82642;SDS011;72323;41.914;22.438;2023-09-07T04:11:41;13.80;;;11.10;;
82642;SDS011;72323;41.914;22.438;2023-09-07T04:14:08;13.80;;;11.68;;
82642;SDS011;72323;41.914;22.438;2023-09-07T04:16:34;13.02;;;11.63;;
82642;SDS011;72323;41.914;22.438;2023-09-07T04:19:00;13.20;;;10.10;;
82642;SDS011;72323;41.914;22.438;2023-09-07T04:21:26;13.65;;;10.38;;
82642;SDS011;72323;41.914;22.438;2023-09-07T04:23:52;11.60;;;10.40;;
82642;SDS011;72323;41.914;22.438;2023-09-07T04:26:18;13.10;;;10.05;;
82642;SDS011;72323;41.914;22.438;2023-09-07T04:28:44;13.80;;;10.98;;
82642;SDS011;72323;41.914;22.438;2023-09-07T04:31:10;14.40;;;11.35;;
82642;SDS011;72323;41.914;22.438;2023-09-07T04:33:37;13.48;;;10.27;;
82642;SDS011;72323;41.914;22.438;2023-09-07T04:36:09;14.57;;;10.00;;
82642;SDS011;72323;41.914;22.438;2023-09-07T04:38:38;13.85;;;11.52;;
82642;SDS011;72323;41.914;22.438;2023-09-07T04:41:12;15.32;;;11.77;;
82642;SDS011;72323;41.914;22.438;2023-09-07T04:43:38;16.10;;;10.77;;
82642;SDS011;72323;41.914;22.438;2023-09-07T04:46:05;14.55;;;11.38;;
82642;SDS011;72323;41.914;22.438;2023-09-07T04:48:32;14.02;;;11.70;;
82642;SDS011;72323;41.914;22.438;2023-09-07T04:51:02;14.88;;;11.15;;
82642;SDS011;72323;41.914;22.438;2023-09-07T04:53:31;11.98;;;10.70;;
82642;SDS011;72323;41.914;22.438;2023-09-07T04:55:58;14.07;;;10.40;;
82642;SDS011;72323;41.914;22.438;2023-09-07T04:58:24;17.20;;;14.02;;
82642;SDS011;72323;41.914;22.438;2023-09-07T05:00:51;17.80;;;15.23;;
82642;SDS011;72323;41.914;22.438;2023-09-07T05:03:17;25.40;;;20.17;;
82642;SDS011;72323;41.914;22.438;2023-09-07T05:05:43;29.35;;;22.15;;
82642;SDS011;72323;41.914;22.438;2023-09-07T05:08:10;19.70;;;15.55;;
82642;SDS011;72323;41.914;22.438;2023-09-07T05:10:36;17.23;;;14.40;;
82642;SDS011;72323;41.914;22.438;2023-09-07T05:13:02;21.42;;;15.07;;
82642;SDS011;72323;41.914;22.438;2023-09-07T05:15:29;15.38;;;12.57;;
82642;SDS011;72323;41.914;22.438;2023-09-07T05:18:02;29.48;;;20.92;;
82642;SDS011;72323;41.914;22.438;2023-09-07T05:23:12;17.95;;;11.48;;
82642;SDS011;72323;41.914;22.438;2023-09-07T05:25:54;14.65;;;10.90;;
82642;SDS011;72323;41.914;22.438;2023-09-07T05:28:39;15.18;;;11.30;;
82642;SDS011;72323;41.914;22.438;2023-09-07T05:31:20;16.48;;;12.82;;
82642;SDS011;72323;41.914;22.438;2023-09-07T05:34:04;12.32;;;11.00;;
82642;SDS011;72323;41.914;22.438;2023-09-07T05:37:03;13.85;;;10.63;;
82642;SDS011;72323;41.914;22.438;2023-09-07T05:39:43;12.55;;;9.98;;
82642;SDS011;72323;41.914;22.438;2023-09-07T05:42:11;15.20;;;13.45;;
82642;SDS011;72323;41.914;22.438;2023-09-07T05:44:52;16.13;;;13.75;;
82642;SDS011;72323;41.914;22.438;2023-09-07T05:47:40;14.38;;;12.20;;
82642;SDS011;72323;41.914;22.438;2023-09-07T05:50:34;13.15;;;10.75;;
82642;SDS011;72323;41.914;22.438;2023-09-07T05:53:11;14.13;;;10.30;;
82642;SDS011;72323;41.914;22.438;2023-09-07T05:56:14;12.38;;;8.60;;
82642;SDS011;72323;41.914;22.438;2023-09-07T06:01:54;12.15;;;8.35;;
82642;SDS011;72323;41.914;22.438;2023-09-07T06:10:02;10.50;;;8.65;;
82642;SDS011;72323;41.914;22.438;2023-09-07T06:15:15;9.82;;;8.30;;
82642;SDS011;72323;41.914;22.438;2023-09-07T06:17:41;8.82;;;6.88;;
82642;SDS011;72323;41.914;22.438;2023-09-07T06:20:08;10.95;;;7.88;;
82642;SDS011;72323;41.914;22.438;2023-09-07T06:22:34;13.00;;;7.13;;
82642;SDS011;72323;41.914;22.438;2023-09-07T06:25:01;11.98;;;7.55;;
82642;SDS011;72323;41.914;22.438;2023-09-07T06:27:27;10.35;;;7.82;;
82642;SDS011;72323;41.914;22.438;2023-09-07T06:32:45;7.28;;;6.05;;
82642;SDS011;72323;41.914;22.438;2023-09-07T06:35:13;8.85;;;7.20;;
82642;SDS011;72323;41.914;22.438;2023-09-07T06:37:46;9.85;;;7.28;;
82642;SDS011;72323;41.914;22.438;2023-09-07T06:40:12;8.27;;;6.97;;
82642;SDS011;72323;41.914;22.438;2023-09-07T06:42:44;6.78;;;6.10;;
82642;SDS011;72323;41.914;22.438;2023-09-07T06:45:13;8.52;;;6.60;;
82642;SDS011;72323;41.914;22.438;2023-09-07T06:47:42;8.00;;;5.85;;
82642;SDS011;72323;41.914;22.438;2023-09-07T06:56:03;7.13;;;6.00;;
82642;SDS011;72323;41.914;22.438;2023-09-07T07:01:59;11.18;;;6.28;;
82642;SDS011;72323;41.914;22.438;2023-09-07T07:04:52;9.93;;;7.88;;
82642;SDS011;72323;41.914;22.438;2023-09-07T07:07:40;10.85;;;6.07;;
82642;SDS011;72323;41.914;22.438;2023-09-07T07:13:43;7.65;;;6.25;;
82642;SDS011;72323;41.914;22.438;2023-09-07T07:19:35;11.10;;;8.90;;
82642;SDS011;72323;41.914;22.438;2023-09-07T07:22:16;8.00;;;5.72;;
82642;SDS011;72323;41.914;22.438;2023-09-07T07:27:34;8.07;;;5.72;;
82642;SDS011;72323;41.914;22.438;2023-09-07T07:30:06;7.95;;;5.70;;
82642;SDS011;72323;41.914;22.438;2023-09-07T07:32:32;9.82;;;6.22;;
82642;SDS011;72323;41.914;22.438;2023-09-07T07:34:58;7.10;;;5.47;;
82642;SDS011;72323;41.914;22.438;2023-09-07T07:37:27;7.35;;;5.90;;
82642;SDS011;72323;41.914;22.438;2023-09-07T07:39:53;6.00;;;5.13;;
82642;SDS011;72323;41.914;22.438;2023-09-07T07:42:19;8.57;;;5.70;;
82642;SDS011;72323;41.914;22.438;2023-09-07T07:44:55;6.22;;;5.20;;
82642;SDS011;72323;41.914;22.438;2023-09-07T07:47:24;7.85;;;5.75;;
82642;SDS011;72323;41.914;22.438;2023-09-07T07:49:54;7.43;;;5.63;;
82642;SDS011;72323;41.914;22.438;2023-09-07T07:52:29;9.85;;;6.28;;
82642;SDS011;72323;41.914;22.438;2023-09-07T07:54:58;6.88;;;5.47;;
82642;SDS011;72323;41.914;22.438;2023-09-07T07:57:27;9.15;;;5.90;;
82642;SDS011;72323;41.914;22.438;2023-09-07T07:59:56;6.78;;;5.50;;
82642;SDS011;72323;41.914;22.438;2023-09-07T08:02:35;7.90;;;5.05;;
82642;SDS011;72323;41.914;22.438;2023-09-07T08:05:03;7.63;;;5.13;;
82642;SDS011;72323;41.914;22.438;2023-09-07T08:07:45;6.80;;;5.28;;
82642;SDS011;72323;41.914;22.438;2023-09-07T08:21:07;6.88;;;4.20;;
82642;SDS011;72323;41.914;22.438;2023-09-07T08:23:33;6.50;;;4.88;;
82642;SDS011;72323;41.914;22.438;2023-09-07T08:26:02;8.38;;;5.82;;
82642;SDS011;72323;41.914;22.438;2023-09-07T08:28:31;6.72;;;5.20;;
82642;SDS011;72323;41.914;22.438;2023-09-07T08:30:58;6.57;;;5.00;;
82642;SDS011;72323;41.914;22.438;2023-09-07T08:33:36;8.48;;;4.95;;
82642;SDS011;72323;41.914;22.438;2023-09-07T08:36:05;6.68;;;4.80;;
82642;SDS011;72323;41.914;22.438;2023-09-07T08:38:37;8.38;;;4.60;;
82642;SDS011;72323;41.914;22.438;2023-09-07T08:41:03;8.45;;;5.30;;
82642;SDS011;72323;41.914;22.438;2023-09-07T08:43:39;6.68;;;5.20;;
82642;SDS011;72323;41.914;22.438;2023-09-07T08:46:18;8.00;;;5.20;;
82642;SDS011;72323;41.914;22.438;2023-09-07T08:48:50;7.25;;;5.35;;
82642;SDS011;72323;41.914;22.438;2023-09-07T08:51:19;8.52;;;5.35;;
82642;SDS011;72323;41.914;22.438;2023-09-07T08:53:45;6.40;;;5.05;;
82642;SDS011;72323;41.914;22.438;2023-09-07T08:56:12;8.07;;;4.82;;
82642;SDS011;72323;41.914;22.438;2023-09-07T08:58:42;6.45;;;5.13;;
82642;SDS011;72323;41.914;22.438;2023-09-07T09:01:17;8.77;;;4.65;;
82642;SDS011;72323;41.914;22.438;2023-09-07T09:03:45;6.28;;;4.90;;
82642;SDS011;72323;41.914;22.438;2023-09-07T09:06:12;6.82;;;5.03;;
82642;SDS011;72323;41.914;22.438;2023-09-07T09:08:44;9.27;;;5.10;;
82642;SDS011;72323;41.914;22.438;2023-09-07T09:11:10;7.82;;;4.90;;
82642;SDS011;72323;41.914;22.438;2023-09-07T09:13:36;5.65;;;4.88;;
82642;SDS011;72323;41.914;22.438;2023-09-07T09:16:06;7.50;;;4.47;;
82642;SDS011;72323;41.914;22.438;2023-09-07T09:18:35;6.30;;;3.85;;
82642;SDS011;72323;41.914;22.438;2023-09-07T09:21:26;7.55;;;5.18;;
82642;SDS011;72323;41.914;22.438;2023-09-07T09:26:26;7.57;;;5.22;;
82642;SDS011;72323;41.914;22.438;2023-09-07T09:28:59;6.13;;;4.50;;
82642;SDS011;72323;41.914;22.438;2023-09-07T09:31:28;6.07;;;4.65;;
82642;SDS011;72323;41.914;22.438;2023-09-07T09:36:58;12.35;;;8.77;;
82642;SDS011;72323;41.914;22.438;2023-09-07T09:39:37;7.65;;;5.00;;
82642;SDS011;72323;41.914;22.438;2023-09-07T09:44:40;5.68;;;4.40;;
82642;SDS011;72323;41.914;22.438;2023-09-07T09:47:08;11.40;;;4.63;;
82642;SDS011;72323;41.914;22.438;2023-09-07T09:49:36;5.88;;;4.47;;
82642;SDS011;72323;41.914;22.438;2023-09-07T09:52:03;8.00;;;4.88;;
82642;SDS011;72323;41.914;22.438;2023-09-07T09:54:32;7.20;;;4.90;;
82642;SDS011;72323;41.914;22.438;2023-09-07T09:59:25;6.68;;;4.03;;
82642;SDS011;72323;41.914;22.438;2023-09-07T10:01:54;6.43;;;4.22;;
82642;SDS011;72323;41.914;22.438;2023-09-07T10:04:23;6.38;;;4.22;;
82642;SDS011;72323;41.914;22.438;2023-09-07T10:06:50;11.10;;;3.95;;
82642;SDS011;72323;41.914;22.438;2023-09-07T10:09:16;6.30;;;4.18;;
82642;SDS011;72323;41.914;22.438;2023-09-07T10:11:50;5.00;;;3.63;;
82642;SDS011;72323;41.914;22.438;2023-09-07T10:14:19;5.72;;;3.70;;
82642;SDS011;72323;41.914;22.438;2023-09-07T10:16:46;6.53;;;3.75;;
82642;SDS011;72323;41.914;22.438;2023-09-07T10:21:42;5.20;;;3.83;;
82642;SDS011;72323;41.914;22.438;2023-09-07T10:24:09;5.25;;;4.10;;
82642;SDS011;72323;41.914;22.438;2023-09-07T10:26:35;4.82;;;3.58;;
82642;SDS011;72323;41.914;22.438;2023-09-07T10:29:01;5.50;;;3.58;;
82642;SDS011;72323;41.914;22.438;2023-09-07T10:31:30;5.72;;;3.67;;
82642;SDS011;72323;41.914;22.438;2023-09-07T10:34:07;4.30;;;2.92;;
82642;SDS011;72323;41.914;22.438;2023-09-07T10:36:34;8.77;;;3.92;;
82642;SDS011;72323;41.914;22.438;2023-09-07T10:39:02;8.05;;;3.35;;
82642;SDS011;72323;41.914;22.438;2023-09-07T10:41:44;4.43;;;3.40;;
82642;SDS011;72323;41.914;22.438;2023-09-07T10:44:11;7.55;;;3.90;;
82642;SDS011;72323;41.914;22.438;2023-09-07T10:46:39;5.60;;;3.38;;
82642;SDS011;72323;41.914;22.438;2023-09-07T10:49:11;8.57;;;4.18;;
82642;SDS011;72323;41.914;22.438;2023-09-07T10:51:42;7.50;;;3.40;;
82642;SDS011;72323;41.914;22.438;2023-09-07T10:57:11;7.68;;;3.65;;
82642;SDS011;72323;41.914;22.438;2023-09-07T10:59:46;9.38;;;3.78;;
82642;SDS011;72323;41.914;22.438;2023-09-07T11:02:20;7.00;;;3.67;;
82642;SDS011;72323;41.914;22.438;2023-09-07T11:07:58;6.68;;;3.83;;
82642;SDS011;72323;41.914;22.438;2023-09-07T11:10:26;4.00;;;3.58;;
82642;SDS011;72323;41.914;22.438;2023-09-07T11:12:56;7.88;;;4.78;;
82642;SDS011;72323;41.914;22.438;2023-09-07T11:15:22;5.38;;;3.15;;
82642;SDS011;72323;41.914;22.438;2023-09-07T11:21:13;4.95;;;3.55;;
82642;SDS011;72323;41.914;22.438;2023-09-07T11:23:45;6.80;;;3.90;;
82642;SDS011;72323;41.914;22.438;2023-09-07T11:26:41;4.57;;;3.63;;
82642;SDS011;72323;41.914;22.438;2023-09-07T11:29:31;7.65;;;3.42;;
82642;SDS011;72323;41.914;22.438;2023-09-07T11:32:10;5.28;;;3.80;;
82642;SDS011;72323;41.914;22.438;2023-09-07T11:34:57;7.65;;;4.75;;
82642;SDS011;72323;41.914;22.438;2023-09-07T11:37:51;5.53;;;3.58;;
82642;SDS011;72323;41.914;22.438;2023-09-07T11:40:35;9.50;;;3.80;;
82642;SDS011;72323;41.914;22.438;2023-09-07T11:43:01;7.75;;;4.10;;
82642;SDS011;72323;41.914;22.438;2023-09-07T11:48:23;6.20;;;3.13;;
82642;SDS011;72323;41.914;22.438;2023-09-07T11:50:57;5.82;;;3.08;;
82642;SDS011;72323;41.914;22.438;2023-09-07T11:55:53;7.05;;;3.80;;
82642;SDS011;72323;41.914;22.438;2023-09-07T11:58:26;5.97;;;3.88;;
82642;SDS011;72323;41.914;22.438;2023-09-07T12:00:57;4.25;;;3.70;;
82642;SDS011;72323;41.914;22.438;2023-09-07T12:03:37;6.20;;;3.83;;
82642;SDS011;72323;41.914;22.438;2023-09-07T12:06:32;5.25;;;3.97;;
82642;SDS011;72323;41.914;22.438;2023-09-07T12:12:16;4.97;;;3.72;;
82642;SDS011;72323;41.914;22.438;2023-09-07T12:14:51;5.95;;;4.43;;
82642;SDS011;72323;41.914;22.438;2023-09-07T12:17:24;4.68;;;3.20;;
82642;SDS011;72323;41.914;22.438;2023-09-07T12:19:50;7.32;;;3.70;;
82642;SDS011;72323;41.914;22.438;2023-09-07T12:22:17;8.52;;;4.05;;
82642;SDS011;72323;41.914;22.438;2023-09-07T12:24:43;5.55;;;4.22;;
82642;SDS011;72323;41.914;22.438;2023-09-07T12:27:12;4.82;;;3.30;;
82642;SDS011;72323;41.914;22.438;2023-09-07T12:29:38;8.27;;;4.22;;
82642;SDS011;72323;41.914;22.438;2023-09-07T12:32:04;6.63;;;3.85;;
82642;SDS011;72323;41.914;22.438;2023-09-07T12:34:30;5.70;;;3.83;;
82642;SDS011;72323;41.914;22.438;2023-09-07T12:36:56;6.40;;;3.40;;
82642;SDS011;72323;41.914;22.438;2023-09-07T12:39:23;6.68;;;4.38;;
82642;SDS011;72323;41.914;22.438;2023-09-07T12:41:49;9.93;;;4.00;;
82642;SDS011;72323;41.914;22.438;2023-09-07T12:44:15;7.38;;;4.00;;
82642;SDS011;72323;41.914;22.438;2023-09-07T12:46:43;5.25;;;3.30;;
82642;SDS011;72323;41.914;22.438;2023-09-07T12:49:09;5.90;;;3.72;;
82642;SDS011;72323;41.914;22.438;2023-09-07T12:51:35;7.30;;;4.03;;
82642;SDS011;72323;41.914;22.438;2023-09-07T12:54:01;7.03;;;4.30;;
82642;SDS011;72323;41.914;22.438;2023-09-07T12:56:28;11.40;;;3.70;;
82642;SDS011;72323;41.914;22.438;2023-09-07T12:58:54;6.80;;;3.85;;
82642;SDS011;72323;41.914;22.438;2023-09-07T13:01:22;7.75;;;3.47;;
82642;SDS011;72323;41.914;22.438;2023-09-07T13:03:48;8.10;;;3.80;;
82642;SDS011;72323;41.914;22.438;2023-09-07T13:06:14;4.80;;;3.78;;
82642;SDS011;72323;41.914;22.438;2023-09-07T13:08:42;4.57;;;3.60;;
82642;SDS011;72323;41.914;22.438;2023-09-07T13:11:09;7.72;;;4.07;;
82642;SDS011;72323;41.914;22.438;2023-09-07T13:16:04;5.90;;;3.40;;
82642;SDS011;72323;41.914;22.438;2023-09-07T13:18:30;6.03;;;3.92;;
82642;SDS011;72323;41.914;22.438;2023-09-07T13:21:07;5.90;;;3.45;;
82642;SDS011;72323;41.914;22.438;2023-09-07T13:23:33;7.38;;;4.45;;
82642;SDS011;72323;41.914;22.438;2023-09-07T13:25:59;7.18;;;3.85;;
82642;SDS011;72323;41.914;22.438;2023-09-07T13:28:26;5.22;;;3.65;;
82642;SDS011;72323;41.914;22.438;2023-09-07T13:30:55;4.25;;;3.60;;
82642;SDS011;72323;41.914;22.438;2023-09-07T13:33:21;7.57;;;4.05;;
82642;SDS011;72323;41.914;22.438;2023-09-07T13:35:47;4.90;;;3.60;;
82642;SDS011;72323;41.914;22.438;2023-09-07T13:38:13;6.43;;;3.67;;
82642;SDS011;72323;41.914;22.438;2023-09-07T13:40:39;8.75;;;4.20;;
82642;SDS011;72323;41.914;22.438;2023-09-07T13:43:06;5.47;;;3.90;;
82642;SDS011;72323;41.914;22.438;2023-09-07T13:45:32;5.88;;;3.53;;
82642;SDS011;72323;41.914;22.438;2023-09-07T13:47:58;7.53;;;3.88;;
82642;SDS011;72323;41.914;22.438;2023-09-07T13:50:24;4.63;;;3.50;;
82642;SDS011;72323;41.914;22.438;2023-09-07T13:52:50;6.85;;;3.80;;
82642;SDS011;72323;41.914;22.438;2023-09-07T13:55:19;5.63;;;4.03;;
82642;SDS011;72323;41.914;22.438;2023-09-07T13:57:45;7.35;;;4.10;;
82642;SDS011;72323;41.914;22.438;2023-09-07T14:00:12;7.03;;;3.90;;
82642;SDS011;72323;41.914;22.438;2023-09-07T14:02:39;7.32;;;4.30;;
82642;SDS011;72323;41.914;22.438;2023-09-07T14:05:05;6.38;;;3.75;;
82642;SDS011;72323;41.914;22.438;2023-09-07T14:07:31;6.00;;;4.32;;
82642;SDS011;72323;41.914;22.438;2023-09-07T14:09:57;4.63;;;3.83;;
82642;SDS011;72323;41.914;22.438;2023-09-07T14:12:23;5.20;;;3.25;;
82642;SDS011;72323;41.914;22.438;2023-09-07T14:14:49;6.40;;;3.33;;
82642;SDS011;72323;41.914;22.438;2023-09-07T14:17:16;7.00;;;4.55;;
82642;SDS011;72323;41.914;22.438;2023-09-07T14:19:42;8.93;;;4.30;;
82642;SDS011;72323;41.914;22.438;2023-09-07T14:22:10;7.78;;;4.63;;
82642;SDS011;72323;41.914;22.438;2023-09-07T14:24:36;6.68;;;3.95;;
82642;SDS011;72323;41.914;22.438;2023-09-07T14:27:02;4.85;;;3.38;;
82642;SDS011;72323;41.914;22.438;2023-09-07T14:29:29;6.97;;;3.45;;
82642;SDS011;72323;41.914;22.438;2023-09-07T14:31:55;6.00;;;3.97;;
82642;SDS011;72323;41.914;22.438;2023-09-07T14:34:21;6.40;;;3.50;;
82642;SDS011;72323;41.914;22.438;2023-09-07T14:36:51;5.28;;;3.45;;
82642;SDS011;72323;41.914;22.438;2023-09-07T14:39:17;7.97;;;3.10;;
82642;SDS011;72323;41.914;22.438;2023-09-07T14:41:48;7.20;;;4.20;;
82642;SDS011;72323;41.914;22.438;2023-09-07T14:44:14;6.55;;;4.18;;
82642;SDS011;72323;41.914;22.438;2023-09-07T14:46:40;4.35;;;3.10;;
82642;SDS011;72323;41.914;22.438;2023-09-07T14:49:07;6.68;;;3.42;;
82642;SDS011;72323;41.914;22.438;2023-09-07T14:51:33;7.97;;;3.70;;
82642;SDS011;72323;41.914;22.438;2023-09-07T14:53:59;5.20;;;4.07;;
82642;SDS011;72323;41.914;22.438;2023-09-07T14:56:25;5.85;;;3.42;;
82642;SDS011;72323;41.914;22.438;2023-09-07T14:58:53;5.82;;;3.45;;
82642;SDS011;72323;41.914;22.438;2023-09-07T15:01:19;5.45;;;3.35;;
82642;SDS011;72323;41.914;22.438;2023-09-07T15:03:46;7.65;;;3.28;;
82642;SDS011;72323;41.914;22.438;2023-09-07T15:06:14;5.90;;;3.20;;
82642;SDS011;72323;41.914;22.438;2023-09-07T15:08:44;6.22;;;3.50;;
82642;SDS011;72323;41.914;22.438;2023-09-07T15:11:10;4.50;;;2.85;;
82642;SDS011;72323;41.914;22.438;2023-09-07T15:13:39;4.38;;;3.40;;
82642;SDS011;72323;41.914;22.438;2023-09-07T15:16:06;6.53;;;3.25;;
82642;SDS011;72323;41.914;22.438;2023-09-07T15:18:33;5.32;;;3.45;;
82642;SDS011;72323;41.914;22.438;2023-09-07T15:21:02;3.95;;;3.22;;
82642;SDS011;72323;41.914;22.438;2023-09-07T15:23:31;4.28;;;3.25;;
82642;SDS011;72323;41.914;22.438;2023-09-07T15:25:57;9.07;;;3.33;;
82642;SDS011;72323;41.914;22.438;2023-09-07T15:28:23;5.05;;;3.50;;
82642;SDS011;72323;41.914;22.438;2023-09-07T15:30:49;8.00;;;3.15;;
82642;SDS011;72323;41.914;22.438;2023-09-07T15:33:15;4.43;;;3.35;;
82642;SDS011;72323;41.914;22.438;2023-09-07T15:35:42;5.32;;;3.70;;
82642;SDS011;72323;41.914;22.438;2023-09-07T15:38:08;7.40;;;3.72;;
82642;SDS011;72323;41.914;22.438;2023-09-07T15:40:36;7.40;;;3.83;;
82642;SDS011;72323;41.914;22.438;2023-09-07T15:43:04;5.75;;;2.97;;
82642;SDS011;72323;41.914;22.438;2023-09-07T15:45:36;4.03;;;3.38;;
82642;SDS011;72323;41.914;22.438;2023-09-07T15:48:03;5.03;;;3.03;;
82642;SDS011;72323;41.914;22.438;2023-09-07T15:50:32;4.82;;;3.38;;
82642;SDS011;72323;41.914;22.438;2023-09-07T15:52:59;5.03;;;3.20;;
82642;SDS011;72323;41.914;22.438;2023-09-07T15:55:25;4.40;;;3.30;;
82642;SDS011;72323;41.914;22.438;2023-09-07T15:57:51;5.63;;;3.50;;
82642;SDS011;72323;41.914;22.438;2023-09-07T16:00:17;5.35;;;3.63;;